createdAt,value
2019-02-20T00:02:02.140Z,2.60
2019-02-20T00:04:32.595Z,7.13
2019-02-20T00:07:03.034Z,6.53
2019-02-20T00:09:33.528Z,3.87
2019-02-20T00:12:04.162Z,7.53
2019-02-20T00:14:34.984Z,6.00
2019-02-20T00:17:05.475Z,2.30
2019-02-20T00:19:35.986Z,2.50
2019-02-20T00:22:06.466Z,11.83
2019-02-20T00:24:36.922Z,4.90
2019-02-20T00:27:07.551Z,10.50
2019-02-20T00:29:38.001Z,5.20
2019-02-20T00:32:08.416Z,3.83
2019-02-20T00:34:38.876Z,9.53
2019-02-20T00:37:09.350Z,2.07
2019-02-20T00:39:39.776Z,5.53
2019-02-20T00:42:10.212Z,5.27
2019-02-20T00:44:51.379Z,6.93
2019-02-20T00:47:47.344Z,2.23
2019-02-20T00:50:18.782Z,5.37
2019-02-20T00:52:57.479Z,2.20
2019-02-20T00:55:27.956Z,2.93
2019-02-20T00:57:58.427Z,5.90
2019-02-20T01:00:28.891Z,4.50
2019-02-20T01:02:59.323Z,5.30
2019-02-20T01:05:29.748Z,11.90
2019-02-20T01:08:02.714Z,3.47
2019-02-20T01:10:33.174Z,5.47
2019-02-20T01:13:03.638Z,5.43
2019-02-20T01:15:34.069Z,8.27
2019-02-20T01:18:04.518Z,5.80
2019-02-20T01:20:34.995Z,8.83
2019-02-20T01:23:05.430Z,20.00
2019-02-20T01:25:35.889Z,5.23
2019-02-20T01:28:06.342Z,4.97
2019-02-20T01:30:36.793Z,3.17
2019-02-20T01:33:07.244Z,2.00
2019-02-20T01:35:37.671Z,7.77
2019-02-20T01:38:08.116Z,1.90
2019-02-20T01:40:38.592Z,2.40
2019-02-20T01:43:09.072Z,4.57
2019-02-20T01:45:39.581Z,14.67
2019-02-20T01:48:10.026Z,23.40
2019-02-20T01:50:40.434Z,7.03
2019-02-20T01:53:10.843Z,5.40
2019-02-20T01:55:41.274Z,6.77
2019-02-20T01:58:11.672Z,10.63
2019-02-20T02:00:42.177Z,5.90
2019-02-20T02:03:12.589Z,3.50
2019-02-20T02:05:43.036Z,3.93
2019-02-20T02:08:13.439Z,9.93
2019-02-20T02:10:43.856Z,7.20
2019-02-20T02:13:14.279Z,3.33
2019-02-20T02:15:44.725Z,4.33
2019-02-20T02:18:15.162Z,21.53
2019-02-20T02:20:45.569Z,5.00
2019-02-20T02:23:19.925Z,8.13
2019-02-20T02:25:48.237Z,9.80
2019-02-20T02:28:18.814Z,2.90
2019-02-20T02:30:49.267Z,7.90
2019-02-20T02:33:20.002Z,9.70
2019-02-20T02:35:50.448Z,9.37
2019-02-20T02:38:20.920Z,9.83
2019-02-20T02:40:51.475Z,1.93
2019-02-20T02:43:21.899Z,8.23
2019-02-20T02:45:52.327Z,12.80
2019-02-20T02:48:22.790Z,7.10
2019-02-20T02:50:53.161Z,10.60
2019-02-20T02:53:30.394Z,2.27
2019-02-20T02:55:55.741Z,2.70
2019-02-20T02:58:26.161Z,9.63
2019-02-20T03:00:56.588Z,6.57
2019-02-20T03:03:27.039Z,1.80
2019-02-20T03:05:57.502Z,5.70
2019-02-20T03:08:27.890Z,7.83
2019-02-20T03:10:58.330Z,7.00
2019-02-20T03:13:28.779Z,8.30
2019-02-20T03:15:59.218Z,6.83
2019-02-20T03:18:29.670Z,7.73
2019-02-20T03:21:00.078Z,5.27
2019-02-20T03:23:39.830Z,5.40
2019-02-20T03:26:02.746Z,9.50
2019-02-20T03:28:33.149Z,11.73
2019-02-20T03:31:03.576Z,12.97
2019-02-20T03:33:33.991Z,20.70
2019-02-20T03:36:04.397Z,8.53
2019-02-20T03:38:34.829Z,5.00
2019-02-20T03:41:05.715Z,5.07
2019-02-20T03:43:36.090Z,5.87
2019-02-20T03:46:06.498Z,18.33
2019-02-20T03:48:36.930Z,16.43
2019-02-20T03:51:07.319Z,6.77
2019-02-20T03:53:37.707Z,4.60
2019-02-20T03:56:08.136Z,2.60
2019-02-20T03:58:38.777Z,13.37
2019-02-20T04:01:09.210Z,8.60
2019-02-20T04:03:39.627Z,2.77
2019-02-20T04:06:10.065Z,3.17
2019-02-20T04:08:40.517Z,6.67
2019-02-20T04:11:10.984Z,3.00
2019-02-20T04:13:41.567Z,4.17
2019-02-20T04:16:11.978Z,7.10
2019-02-20T04:18:42.413Z,3.20
2019-02-20T04:21:12.940Z,13.20
2019-02-20T04:23:43.373Z,4.20
2019-02-20T04:26:13.840Z,9.13
2019-02-20T04:28:44.263Z,14.20
2019-02-20T04:31:14.662Z,7.33
2019-02-20T04:33:45.179Z,1.90
2019-02-20T04:36:15.609Z,6.20
2019-02-20T04:38:46.014Z,5.50
2019-02-20T04:41:16.445Z,11.97
2019-02-20T04:43:46.873Z,3.07
2019-02-20T04:46:17.298Z,8.10
2019-02-20T04:48:47.751Z,6.43
2019-02-20T04:51:18.143Z,11.00
2019-02-20T04:53:48.638Z,4.17
2019-02-20T04:56:19.081Z,2.47
2019-02-20T04:58:55.938Z,4.10
2019-02-20T05:01:26.388Z,10.80
2019-02-20T05:03:56.828Z,3.90
2019-02-20T05:06:27.230Z,4.00
2019-02-20T05:08:57.823Z,3.47
2019-02-20T05:11:28.222Z,8.10
2019-02-20T05:13:58.665Z,6.67
2019-02-20T05:16:30.314Z,4.60
2019-02-20T05:19:00.770Z,4.73
2019-02-20T05:21:31.208Z,2.40
2019-02-20T05:24:01.595Z,5.13
2019-02-20T05:26:32.005Z,13.07
2019-02-20T05:29:02.441Z,5.10
2019-02-20T05:31:32.851Z,4.20
2019-02-20T05:34:03.273Z,6.10
2019-02-20T05:36:33.725Z,3.80
2019-02-20T05:39:04.717Z,5.80
2019-02-20T05:41:35.150Z,4.33
2019-02-20T05:44:05.608Z,2.20
2019-02-20T05:46:36.036Z,5.70
2019-02-20T05:49:06.673Z,5.20
2019-02-20T05:51:37.121Z,4.13
2019-02-20T05:54:07.561Z,7.50
2019-02-20T05:56:37.980Z,5.10
2019-02-20T05:59:08.389Z,7.00
2019-02-20T06:01:38.840Z,6.37
2019-02-20T06:04:09.282Z,9.03
2019-02-20T06:06:39.694Z,3.70
2019-02-20T06:09:10.134Z,9.40
2019-02-20T06:11:40.576Z,6.40
2019-02-20T06:14:10.972Z,5.20
2019-02-20T06:16:41.384Z,10.97
2019-02-20T06:19:11.784Z,5.37
2019-02-20T06:21:42.197Z,7.05
2019-02-20T06:24:12.629Z,6.40
2019-02-20T06:26:43.079Z,6.63
2019-02-20T06:29:13.588Z,6.47
2019-02-20T06:31:44.081Z,2.63
2019-02-20T06:34:14.530Z,10.80
2019-02-20T06:36:44.922Z,4.97
2019-02-20T06:39:15.337Z,8.37
2019-02-20T06:41:45.992Z,4.47
2019-02-20T06:44:16.405Z,4.47
2019-02-20T06:46:46.845Z,6.80
2019-02-20T06:49:17.270Z,6.50
2019-02-20T06:51:47.697Z,5.93
2019-02-20T06:54:18.110Z,7.07
2019-02-20T06:56:50.274Z,6.53
2019-02-20T06:59:20.784Z,4.53
2019-02-20T07:01:51.221Z,7.57
2019-02-20T07:04:23.490Z,8.50
2019-02-20T07:07:43.171Z,4.40
2019-02-20T07:11:11.160Z,5.33
2019-02-20T07:14:23.995Z,5.97
2019-02-20T07:17:42.560Z,4.93
2019-02-20T07:21:11.549Z,8.23
2019-02-20T07:24:24.037Z,6.20
2019-02-20T07:27:42.269Z,4.80
2019-02-20T07:30:12.788Z,9.30
2019-02-20T07:32:43.198Z,7.97
2019-02-20T07:35:14.084Z,20.93
2019-02-20T07:37:44.615Z,6.53
2019-02-20T07:40:15.266Z,4.10
2019-02-20T07:42:45.797Z,4.60
2019-02-20T07:45:17.001Z,16.23
2019-02-20T07:47:47.450Z,6.33
2019-02-20T07:50:20.158Z,5.43
2019-02-20T07:52:51.780Z,9.57
2019-02-20T07:55:22.208Z,6.93
2019-02-20T07:57:52.674Z,7.30
2019-02-20T08:00:23.109Z,6.27
2019-02-20T08:02:53.561Z,4.80
2019-02-20T08:05:24.021Z,9.37
2019-02-20T08:07:54.456Z,7.57
2019-02-20T08:10:24.956Z,10.80
2019-02-20T08:12:55.443Z,14.33
2019-02-20T08:15:25.906Z,9.57
2019-02-20T08:17:56.354Z,7.43
2019-02-20T08:20:26.798Z,12.70
2019-02-20T08:22:57.304Z,13.47
2019-02-20T08:25:27.741Z,10.13
2019-02-20T08:27:58.217Z,13.73
2019-02-20T08:30:28.698Z,11.33
2019-02-20T08:32:59.137Z,25.10
2019-02-20T08:35:29.586Z,11.20
2019-02-20T08:38:02.163Z,7.63
2019-02-20T08:40:32.615Z,11.67
2019-02-20T08:43:03.134Z,10.87
2019-02-20T08:45:33.756Z,9.00
2019-02-20T08:48:04.317Z,9.53
2019-02-20T08:50:34.779Z,10.73
2019-02-20T08:53:05.261Z,10.50
2019-02-20T08:55:35.724Z,7.27
2019-02-20T08:58:06.170Z,12.37
2019-02-20T09:00:36.626Z,13.80
2019-02-20T09:03:09.001Z,11.27
2019-02-20T09:05:41.389Z,7.13
2019-02-20T09:08:11.833Z,11.97
2019-02-20T09:10:42.545Z,9.13
2019-02-20T09:13:12.962Z,13.80
2019-02-20T09:15:43.387Z,9.43
2019-02-20T09:18:13.854Z,15.13
2019-02-20T09:20:44.299Z,9.13
2019-02-20T09:23:14.740Z,15.57
2019-02-20T09:25:45.189Z,10.10
2019-02-20T09:28:15.684Z,11.00
2019-02-20T09:30:46.128Z,16.93
2019-02-20T09:33:16.576Z,14.80
2019-02-20T09:35:47.024Z,8.87
2019-02-20T09:38:17.457Z,14.70
2019-02-20T09:40:47.876Z,9.73
2019-02-20T09:43:18.333Z,11.13
2019-02-20T09:45:48.860Z,11.10
2019-02-20T09:48:19.275Z,11.73
2019-02-20T09:50:49.686Z,15.20
2019-02-20T09:53:20.133Z,10.43
2019-02-20T09:55:51.891Z,12.10
2019-02-20T09:58:22.515Z,12.73
2019-02-20T10:00:52.968Z,10.80
2019-02-20T10:03:23.563Z,11.00
2019-02-20T10:05:54.104Z,11.20
2019-02-20T10:08:24.593Z,15.73
2019-02-20T10:10:55.125Z,19.23
2019-02-20T10:13:25.771Z,12.17
2019-02-20T10:15:56.225Z,16.53
2019-02-20T10:18:26.696Z,14.87
2019-02-20T10:20:57.169Z,13.00
2019-02-20T10:23:27.596Z,10.93
2019-02-20T10:26:00.922Z,16.40
2019-02-20T10:28:30.249Z,12.00
2019-02-20T10:31:00.690Z,15.30
2019-02-20T10:33:31.126Z,14.93
2019-02-20T10:36:01.590Z,20.47
2019-02-20T10:38:32.003Z,12.40
2019-02-20T10:41:02.435Z,25.03
2019-02-20T10:43:32.865Z,19.03
2019-02-20T10:46:03.563Z,15.73
2019-02-20T10:48:34.005Z,13.67
2019-02-20T10:51:04.444Z,12.40
2019-02-20T10:53:34.895Z,19.37
2019-02-20T10:56:09.382Z,17.90
2019-02-20T10:58:37.522Z,17.00
2019-02-20T11:01:08.448Z,19.53
2019-02-20T11:03:38.898Z,16.33
2019-02-20T11:06:09.331Z,18.07
2019-02-20T11:08:39.791Z,23.37
2019-02-20T11:11:10.313Z,12.73
2019-02-20T11:13:40.747Z,18.93
2019-02-20T11:16:11.291Z,20.87
2019-02-20T11:18:41.721Z,18.20
2019-02-20T11:21:12.194Z,15.00
2019-02-20T11:23:42.640Z,25.53
2019-02-20T11:26:18.377Z,19.90
2019-02-20T11:28:45.691Z,20.93
2019-02-20T11:31:16.156Z,25.83
2019-02-20T11:33:46.674Z,19.73
2019-02-20T11:36:17.113Z,22.73
2019-02-20T11:38:47.572Z,16.23
2019-02-20T11:41:18.026Z,24.00
2019-02-20T11:43:48.474Z,23.13
2019-02-20T11:46:18.920Z,19.13
2019-02-20T11:48:49.371Z,22.93
2019-02-20T11:51:19.826Z,17.23
2019-02-20T11:53:50.270Z,20.70
2019-02-20T11:56:26.403Z,20.67
2019-02-20T11:58:52.929Z,23.10
2019-02-20T12:01:23.398Z,21.17
2019-02-20T12:03:53.942Z,25.87
2019-02-20T12:06:24.404Z,18.40
2019-02-20T12:08:55.702Z,20.83
2019-02-20T12:11:26.288Z,22.03
2019-02-20T12:13:56.755Z,16.70
2019-02-20T12:16:27.381Z,18.70
2019-02-20T12:18:57.913Z,18.17
2019-02-20T12:21:28.396Z,21.77
2019-02-20T12:23:58.911Z,28.83
2019-02-20T12:26:34.885Z,16.57
2019-02-20T12:29:01.599Z,23.23
2019-02-20T12:31:32.926Z,27.27
2019-02-20T12:34:03.362Z,31.63
2019-02-20T12:36:33.816Z,20.80
2019-02-20T12:39:05.074Z,23.87
2019-02-20T12:41:35.507Z,19.30
2019-02-20T12:44:06.178Z,28.03
2019-02-20T12:46:36.631Z,18.07
2019-02-20T12:49:07.289Z,24.67
2019-02-20T12:51:37.870Z,26.23
2019-02-20T12:54:08.542Z,24.73
2019-02-20T12:56:44.073Z,23.90
2019-02-20T12:59:14.105Z,24.73
2019-02-20T13:01:44.568Z,16.83
2019-02-20T13:04:15.021Z,24.67
2019-02-20T13:06:45.533Z,24.00
2019-02-20T13:09:17.778Z,17.80
2019-02-20T13:11:48.295Z,20.23
2019-02-20T13:14:18.775Z,19.87
2019-02-20T13:16:50.097Z,20.67
2019-02-20T13:19:20.601Z,21.37
2019-02-20T13:21:51.071Z,22.00
2019-02-20T13:24:21.546Z,25.47
2019-02-20T13:26:53.175Z,25.17
2019-02-20T13:29:23.744Z,15.27
2019-02-20T13:31:54.219Z,12.67
2019-02-20T13:34:24.738Z,12.43
2019-02-20T13:36:55.181Z,21.73
2019-02-20T13:39:25.765Z,15.47
2019-02-20T13:41:56.202Z,12.73
2019-02-20T13:44:26.649Z,12.10
2019-02-20T13:46:57.454Z,15.57
2019-02-20T13:49:27.919Z,14.07
2019-02-20T13:51:58.355Z,13.47
2019-02-20T13:54:28.781Z,22.10
2019-02-20T13:57:01.783Z,20.80
2019-02-20T13:59:31.701Z,19.80
2019-02-20T14:02:02.188Z,18.13
2019-02-20T14:04:32.783Z,18.13
2019-02-20T14:07:03.261Z,19.67
2019-02-20T14:09:33.773Z,24.35
2019-02-20T14:12:04.197Z,27.83
2019-02-20T14:14:34.672Z,14.23
2019-02-20T14:17:05.173Z,20.20
2019-02-20T14:19:35.632Z,20.13
2019-02-20T14:22:07.683Z,14.30
2019-02-20T14:24:38.431Z,17.07
2019-02-20T14:27:11.112Z,16.57
2019-02-20T14:29:41.699Z,23.13
2019-02-20T14:32:12.265Z,23.60
2019-02-20T14:34:42.780Z,21.17
2019-02-20T14:37:13.266Z,12.70
2019-02-20T14:39:43.840Z,17.80
2019-02-20T14:42:14.796Z,9.63
2019-02-20T14:44:45.288Z,18.37
2019-02-20T14:47:15.719Z,13.87
2019-02-20T14:49:46.159Z,13.60
2019-02-20T14:52:18.592Z,18.73
2019-02-20T14:54:49.197Z,18.73
2019-02-20T14:57:19.937Z,14.47
2019-02-20T14:59:50.535Z,14.43
2019-02-20T15:02:21.006Z,10.70
2019-02-20T15:04:51.491Z,16.77
2019-02-20T15:07:22.168Z,27.07
2019-02-20T15:09:54.071Z,12.50
2019-02-20T15:12:24.670Z,14.63
2019-02-20T15:14:55.351Z,20.73
2019-02-20T15:17:25.812Z,13.57
2019-02-20T15:19:56.379Z,25.63
2019-02-20T15:22:26.892Z,15.33
2019-02-20T15:24:57.501Z,18.77
2019-02-20T15:27:28.918Z,16.90
2019-02-20T15:29:59.705Z,10.40
2019-02-20T15:32:30.463Z,10.27
2019-02-20T15:35:00.988Z,13.00
2019-02-20T15:37:31.886Z,13.27
2019-02-20T15:40:02.612Z,10.77
2019-02-20T15:42:33.247Z,13.80
2019-02-20T15:45:03.817Z,13.27
2019-02-20T15:47:34.281Z,11.40
2019-02-20T15:50:05.380Z,22.93
2019-02-20T15:52:36.113Z,13.30
2019-02-20T15:55:07.109Z,11.40
2019-02-20T15:57:38.517Z,15.00
2019-02-20T16:00:11.975Z,10.33
2019-02-20T16:02:42.477Z,14.63
2019-02-20T16:05:13.216Z,12.70
2019-02-20T16:07:43.739Z,14.93
2019-02-20T16:10:14.337Z,8.07
2019-02-20T16:12:44.801Z,10.27
2019-02-20T16:15:15.766Z,8.53
2019-02-20T16:17:46.220Z,15.17
2019-02-20T16:20:16.999Z,9.07
2019-02-20T16:22:47.623Z,9.13
2019-02-20T16:25:18.068Z,10.10
2019-02-20T16:27:48.544Z,8.50
2019-02-20T16:30:18.990Z,12.43
2019-02-20T16:32:51.188Z,22.83
2019-02-20T16:35:21.980Z,17.23
2019-02-20T16:37:52.780Z,13.10
2019-02-20T16:40:23.261Z,11.13
2019-02-20T16:42:53.771Z,7.20
2019-02-20T16:45:25.413Z,10.97
2019-02-20T16:47:56.205Z,6.60
2019-02-20T16:50:26.846Z,7.60
2019-02-20T16:52:57.327Z,7.40
2019-02-20T16:55:27.932Z,6.97
2019-02-20T16:57:58.613Z,14.10
2019-02-20T17:00:29.322Z,14.13
2019-02-20T17:02:59.857Z,3.70
2019-02-20T17:05:30.806Z,4.90
2019-02-20T17:08:01.400Z,12.70
2019-02-20T17:10:34.493Z,9.83
2019-02-20T17:13:05.261Z,8.70
2019-02-20T17:15:36.283Z,7.90
2019-02-20T17:18:06.848Z,12.30
2019-02-20T17:20:37.364Z,5.17
2019-02-20T17:23:08.048Z,5.90
2019-02-20T17:25:38.574Z,10.90
2019-02-20T17:28:09.210Z,8.73
2019-02-20T17:30:39.700Z,5.20
2019-02-20T17:33:10.289Z,5.80
2019-02-20T17:35:40.846Z,2.50
2019-02-20T17:38:11.506Z,3.33
2019-02-20T17:40:41.984Z,12.97
2019-02-20T17:43:12.815Z,3.63
2019-02-20T17:45:43.346Z,11.83
2019-02-20T17:48:13.851Z,5.03
2019-02-20T17:50:44.364Z,7.57
2019-02-20T17:53:14.829Z,7.60
2019-02-20T17:55:45.447Z,12.67
2019-02-20T17:58:15.942Z,9.37
2019-02-20T18:00:46.917Z,6.03
2019-02-20T18:03:17.412Z,4.03
2019-02-20T18:05:50.751Z,6.67
2019-02-20T18:08:21.364Z,4.37
2019-02-20T18:10:51.941Z,3.40
2019-02-20T18:13:22.562Z,12.07
2019-02-20T18:15:53.078Z,5.57
2019-02-20T18:18:23.611Z,3.80
2019-02-20T18:20:54.068Z,7.27
2019-02-20T18:23:24.594Z,4.10
2019-02-20T18:25:55.060Z,6.57
2019-02-20T18:28:25.557Z,6.17
2019-02-20T18:30:56.224Z,7.07
2019-02-20T18:33:26.729Z,9.30
2019-02-20T18:35:57.223Z,10.53
2019-02-20T18:38:27.836Z,6.83
2019-02-20T18:40:58.588Z,13.33
2019-02-20T18:43:29.028Z,9.13
2019-02-20T18:45:59.786Z,3.27
2019-02-20T18:48:30.396Z,3.27
2019-02-20T18:51:00.936Z,9.23
2019-02-20T18:53:31.465Z,5.27
2019-02-20T18:56:02.001Z,4.40
2019-02-20T18:58:34.243Z,6.13
2019-02-20T19:01:05.078Z,3.43
2019-02-20T19:03:35.604Z,14.20
2019-02-20T19:06:06.493Z,8.23
2019-02-20T19:08:52.841Z,6.13
2019-02-20T19:11:59.605Z,9.13
2019-02-20T19:15:22.990Z,5.10
2019-02-20T19:18:42.668Z,8.43
2019-02-20T19:21:41.030Z,16.90
2019-02-20T19:25:28.878Z,23.43
2019-02-20T19:28:58.147Z,10.20
2019-02-20T19:32:46.191Z,5.70
2019-02-20T19:36:20.054Z,10.87
2019-02-20T19:39:21.743Z,7.03
2019-02-20T19:43:27.682Z,4.43
2019-02-20T19:46:51.177Z,5.30
2019-02-20T19:50:27.961Z,3.60
2019-02-20T19:53:55.443Z,14.20
2019-02-20T19:56:59.546Z,2.70
2019-02-20T20:00:32.702Z,3.83
2019-02-20T20:04:11.259Z,3.23
2019-02-20T20:07:12.685Z,12.43
2019-02-20T20:10:34.009Z,6.50
2019-02-20T20:13:45.491Z,4.93
2019-02-20T20:16:46.935Z,5.20
2019-02-20T20:20:12.994Z,6.97
2019-02-20T20:23:11.963Z,3.20
2019-02-20T20:26:42.011Z,2.83
2019-02-20T20:30:20.329Z,3.07
2019-02-20T20:33:39.096Z,2.73
2019-02-20T20:37:00.983Z,5.43
2019-02-20T20:40:14.863Z,2.77
2019-02-20T20:43:45.536Z,6.33
2019-02-20T20:47:25.473Z,6.73
2019-02-20T20:50:43.459Z,5.00
2019-02-20T20:54:23.047Z,8.47
2019-02-20T20:57:54.683Z,5.23
2019-02-20T21:01:31.328Z,4.27
2019-02-20T21:05:10.399Z,5.50
2019-02-20T21:08:29.367Z,5.70
2019-02-20T21:12:02.874Z,4.50
2019-02-20T21:15:36.255Z,3.20
2019-02-20T21:18:42.624Z,2.30
2019-02-20T21:21:55.449Z,7.20
2019-02-20T21:25:17.716Z,5.13
2019-02-20T21:28:46.038Z,3.03
2019-02-20T21:32:19.195Z,3.83
2019-02-20T21:35:23.460Z,3.93
2019-02-20T21:38:53.223Z,6.60
2019-02-20T21:42:15.167Z,3.53
2019-02-20T21:45:42.279Z,4.10
2019-02-20T21:49:11.804Z,2.47
2019-02-20T21:52:33.705Z,3.57
2019-02-20T21:55:54.733Z,7.97
2019-02-20T21:59:03.916Z,3.70
2019-02-20T22:02:28.138Z,4.63
2019-02-20T22:05:37.571Z,2.07
2019-02-20T22:09:41.490Z,2.90
2019-02-20T22:13:14.820Z,1.80
2019-02-20T22:16:29.137Z,5.50
2019-02-20T22:20:12.306Z,2.33
2019-02-20T22:23:28.393Z,2.20
2019-02-20T22:26:29.666Z,2.60
2019-02-20T22:29:57.177Z,2.50
2019-02-20T22:33:15.521Z,3.80
2019-02-20T22:36:51.606Z,4.10
2019-02-20T22:40:29.014Z,4.33
2019-02-20T22:43:57.035Z,2.40
2019-02-20T22:47:28.514Z,6.00
2019-02-20T22:50:43.803Z,5.20
2019-02-20T22:54:22.943Z,2.23
2019-02-20T22:57:56.833Z,2.47
2019-02-20T23:01:45.031Z,6.63
2019-02-20T23:05:15.330Z,2.30
2019-02-20T23:08:10.126Z,5.63
2019-02-20T23:11:41.994Z,2.80
2019-02-20T23:14:57.909Z,7.30
2019-02-20T23:17:28.796Z,4.77
2019-02-20T23:19:59.501Z,3.93
2019-02-20T23:22:29.916Z,3.73
2019-02-20T23:25:00.368Z,10.40
2019-02-20T23:27:30.800Z,5.23
2019-02-20T23:30:01.257Z,4.23
2019-02-20T23:32:31.883Z,4.47
2019-02-20T23:35:02.350Z,3.33
2019-02-20T23:37:32.802Z,3.00
2019-02-20T23:40:04.825Z,3.10
2019-02-20T23:42:35.423Z,4.63
2019-02-20T23:45:06.196Z,4.30
2019-02-20T23:47:36.626Z,2.47
2019-02-20T23:50:07.554Z,3.37
2019-02-20T23:52:38.026Z,3.90
2019-02-20T23:55:08.457Z,2.30
2019-02-20T23:57:38.948Z,7.33
